createdAt,value
2019-01-24T13:41:03.915Z,-1.70
2019-01-24T13:43:32.240Z,-0.40
2019-01-24T13:46:00.579Z,-1.40
2019-01-24T13:48:28.958Z,-1.50
2019-01-24T13:51:00.791Z,-1.80
2019-01-24T13:53:29.273Z,-2.00
2019-01-24T13:55:57.639Z,-2.10
2019-01-24T13:58:26.116Z,-2.20
2019-01-24T14:00:54.444Z,-2.10
2019-01-24T14:03:28.933Z,-2.10
2019-01-24T14:05:57.337Z,-2.10
2019-01-24T14:08:25.657Z,-2.20
2019-01-24T14:10:53.979Z,-2.00
2019-01-24T14:13:22.250Z,-2.20
2019-01-24T14:15:53.905Z,-2.00
2019-01-24T14:18:22.232Z,-1.90
2019-01-24T14:20:53.539Z,-1.90
2019-01-24T14:23:21.976Z,-1.80
2019-01-24T14:25:54.549Z,-1.60
2019-01-24T14:28:22.835Z,-1.80
2019-01-24T14:30:52.784Z,-2.00
2019-01-24T14:33:22.015Z,-2.20
2019-01-24T14:35:50.386Z,-2.10
2019-01-24T14:38:22.912Z,-2.20
2019-01-24T14:40:51.356Z,-2.30
2019-01-24T14:43:28.492Z,-2.30
2019-01-24T14:46:01.744Z,-2.20
2019-01-24T14:48:31.116Z,-2.30
2019-01-24T14:50:59.674Z,-2.30
2019-01-24T14:53:29.962Z,-2.10
2019-01-24T14:55:58.537Z,-2.30
2019-01-24T14:58:26.855Z,-2.40
2019-01-24T15:00:58.724Z,-2.50
2019-01-24T15:03:38.024Z,-2.50
2019-01-24T15:06:01.538Z,-2.40
2019-01-24T15:08:34.003Z,-2.40
2019-01-24T15:11:02.358Z,-2.40
2019-01-24T15:13:37.885Z,-2.40
2019-01-24T15:16:06.508Z,-2.40
2019-01-24T15:18:36.841Z,-2.50
2019-01-24T15:21:04.891Z,-2.40
2019-01-24T15:23:34.416Z,-2.40
2019-01-24T15:26:02.779Z,-2.50
2019-01-24T15:28:31.062Z,-2.40
2019-01-24T15:30:59.353Z,-2.40
2019-01-24T15:33:27.770Z,-2.50
2019-01-24T15:35:56.167Z,-2.50
2019-01-24T15:38:24.535Z,-2.40
2019-01-24T15:40:52.825Z,-2.40
2019-01-24T15:43:21.129Z,-2.30
2019-01-24T15:45:49.408Z,-2.50
2019-01-24T15:48:17.751Z,-2.60
2019-01-24T15:50:46.033Z,-2.50
2019-01-24T15:53:14.364Z,-2.60
2019-01-24T15:55:42.624Z,-2.60
2019-01-24T15:58:10.929Z,-2.60
2019-01-24T16:00:39.207Z,-2.60
2019-01-24T16:03:07.483Z,-2.70
2019-01-24T16:05:35.813Z,-2.80
2019-01-24T16:08:04.958Z,-2.70
2019-01-24T16:10:34.178Z,-2.70
2019-01-24T16:13:02.655Z,-2.90
2019-01-24T16:15:35.601Z,-2.90
2019-01-24T16:18:05.186Z,-2.80
2019-01-24T16:20:34.533Z,-2.70
2019-01-24T16:23:02.852Z,-2.70
2019-01-24T16:25:33.001Z,-2.80
2019-01-24T16:28:11.805Z,-2.70
2019-01-24T16:30:40.255Z,-2.70
2019-01-24T16:33:09.277Z,-2.80
2019-01-24T16:35:37.798Z,-2.80
2019-01-24T16:38:09.656Z,-2.80
2019-01-24T16:40:36.384Z,-2.60
2019-01-24T16:43:05.362Z,-2.70
2019-01-24T16:45:35.367Z,-2.80
2019-01-24T16:48:03.676Z,-2.60
2019-01-24T16:50:31.940Z,-2.60
2019-01-24T16:53:00.332Z,-2.70
2019-01-24T16:55:28.659Z,-2.60
2019-01-24T16:58:02.931Z,-2.70
2019-01-24T17:00:42.226Z,-2.70
2019-01-24T17:03:10.593Z,-2.60
2019-01-24T17:05:38.971Z,-2.70
2019-01-24T17:08:07.410Z,-2.90
2019-01-24T17:10:35.793Z,-2.80
2019-01-24T17:13:04.446Z,-2.70
2019-01-24T17:15:39.694Z,-2.60
2019-01-24T17:18:05.565Z,-2.50
2019-01-24T17:20:34.180Z,-2.70
2019-01-24T17:23:02.502Z,-2.80
2019-01-24T17:25:33.612Z,-2.60
2019-01-24T17:28:01.932Z,-2.60
2019-01-24T17:33:26.088Z,-2.40
2019-01-24T17:35:55.309Z,-2.30
2019-01-24T17:38:24.114Z,-2.30
2019-01-24T17:40:53.173Z,-2.30
2019-01-24T17:43:21.565Z,-2.40
2019-01-24T17:45:49.917Z,-2.30
2019-01-24T17:48:18.261Z,-2.30
2019-01-24T17:50:58.620Z,-2.40
2019-01-24T17:53:16.579Z,-2.30
2019-01-24T17:55:48.477Z,-2.30
2019-01-24T17:58:16.955Z,-2.50
2019-01-24T18:00:57.377Z,-2.40
2019-01-24T18:03:27.346Z,-2.40
2019-01-24T18:06:09.282Z,-2.50
2019-01-24T18:08:38.147Z,-2.50
2019-01-24T18:11:06.652Z,-2.50
2019-01-24T18:13:36.614Z,-2.40
2019-01-24T18:16:07.272Z,-2.40
2019-01-24T18:18:35.605Z,-2.60
2019-01-24T18:21:05.672Z,-2.50
2019-01-24T18:23:34.466Z,-2.50
2019-01-24T18:26:02.828Z,-2.40
2019-01-24T18:28:31.096Z,-2.40
2019-01-24T18:31:03.924Z,-2.40
2019-01-24T18:33:32.522Z,-2.40
2019-01-24T18:36:01.439Z,-2.30
2019-01-24T18:38:40.807Z,-2.30
2019-01-24T18:41:09.306Z,-2.10
2019-01-24T18:43:37.713Z,-2.20
2019-01-24T18:46:16.616Z,-2.30
2019-01-24T18:48:46.614Z,-2.10
2019-01-24T18:51:15.062Z,-2.20
2019-01-24T18:53:43.545Z,-2.20
2019-01-24T18:56:13.472Z,-2.20
2019-01-24T18:58:41.821Z,-2.30
2019-01-24T19:01:13.229Z,-2.50
2019-01-24T19:03:41.492Z,-2.40
2019-01-24T19:06:11.378Z,-2.30
2019-01-24T19:08:45.889Z,-2.20
2019-01-24T19:11:09.750Z,-2.30
2019-01-24T19:13:38.159Z,-2.30
2019-01-24T19:16:17.110Z,-2.20
2019-01-24T19:18:45.443Z,-2.30
2019-01-24T19:21:21.372Z,-2.20
2019-01-24T19:24:04.112Z,-2.20
2019-01-24T19:26:32.489Z,-2.30
2019-01-24T19:29:00.766Z,-2.10
2019-01-24T19:31:33.752Z,-2.10
2019-01-24T19:34:02.037Z,-2.10
2019-01-24T19:36:34.079Z,-2.10
2019-01-24T19:39:02.521Z,-2.20
2019-01-24T19:41:31.017Z,-2.10
2019-01-24T19:43:59.406Z,-2.10
2019-01-24T19:46:27.802Z,-2.10
2019-01-24T19:48:57.083Z,-2.30
2019-01-24T19:51:30.206Z,-2.40
2019-01-24T19:53:58.611Z,-2.30
2019-01-24T19:56:27.142Z,-2.40
2019-01-24T19:59:04.394Z,-2.40
2019-01-24T20:01:32.855Z,-2.30
2019-01-24T20:04:01.192Z,-2.40
2019-01-24T20:06:38.403Z,-2.30
2019-01-24T20:09:07.269Z,-2.20
2019-01-24T20:11:35.784Z,-2.30
2019-01-24T20:14:08.657Z,-2.30
2019-01-24T20:16:36.963Z,-2.20
2019-01-24T20:19:05.312Z,-2.20
2019-01-24T20:21:33.651Z,-2.10
2019-01-24T20:24:02.104Z,-2.20
2019-01-24T20:26:32.810Z,-2.30
2019-01-24T20:29:01.096Z,-2.60
2019-01-24T20:31:29.398Z,-2.50
2019-01-24T20:34:04.371Z,-2.50
2019-01-24T20:36:32.781Z,-2.40
2019-01-24T20:39:11.709Z,-2.20
2019-01-24T20:41:45.880Z,-2.30
2019-01-24T20:47:48.887Z,-2.20
2019-01-24T20:50:25.541Z,-2.40
2019-01-24T20:52:55.913Z,-2.20
2019-01-24T20:55:24.472Z,-2.20
2019-01-24T20:57:56.972Z,-2.20
2019-01-24T21:00:29.349Z,-2.10
2019-01-24T21:02:59.332Z,-2.30
2019-01-24T21:05:30.953Z,-2.20
2019-01-24T21:07:59.375Z,-2.20
2019-01-24T21:10:31.827Z,-2.20
2019-01-24T21:13:09.849Z,-2.20
2019-01-24T21:19:07.930Z,-2.20
2019-01-24T21:21:36.386Z,-2.10
2019-01-24T21:24:05.319Z,-2.20
2019-01-24T21:26:33.801Z,-2.10
2019-01-24T21:29:03.744Z,-2.10
2019-01-24T21:31:33.281Z,-2.20
2019-01-24T21:34:06.101Z,-2.30
2019-01-24T21:36:34.436Z,-2.40
2019-01-24T21:41:37.325Z,-2.50
2019-01-24T21:44:10.702Z,-2.30
2019-01-24T21:46:39.115Z,-2.20
2019-01-24T21:49:07.504Z,-2.20
2019-01-24T21:51:40.841Z,-2.10
2019-01-24T21:54:09.290Z,-2.20
2019-01-24T21:56:37.768Z,-2.10
2019-01-24T21:59:10.739Z,-2.10
2019-01-24T22:01:39.103Z,-2.10
2019-01-24T22:04:07.407Z,-2.20
2019-01-24T22:06:47.117Z,-2.30
2019-01-24T22:09:12.809Z,-2.30
2019-01-24T22:11:52.403Z,-2.10
2019-01-24T22:14:24.029Z,-2.10
2019-01-24T22:16:52.365Z,-2.10
2019-01-24T22:19:20.680Z,-2.30
2019-01-24T22:21:49.095Z,-2.20
2019-01-24T22:24:17.521Z,-2.10
2019-01-24T22:26:46.113Z,-2.10
2019-01-24T22:29:14.506Z,-2.00
2019-01-24T22:32:00.058Z,-2.10
2019-01-24T22:34:15.096Z,-2.10
2019-01-24T22:36:43.732Z,-2.00
2019-01-24T22:39:12.222Z,-2.00
2019-01-24T22:41:40.602Z,-2.10
2019-01-24T22:44:09.016Z,-2.10
2019-01-24T22:46:45.226Z,-2.00
2019-01-24T22:49:10.239Z,-2.00
2019-01-24T22:51:38.555Z,-2.10
2019-01-24T22:54:06.846Z,-2.00
2019-01-24T22:56:35.483Z,-2.00
2019-01-24T22:59:05.582Z,-2.00
2019-01-24T23:01:37.189Z,-2.10
2019-01-24T23:04:07.414Z,-2.30
2019-01-24T23:06:35.693Z,-2.00
2019-01-24T23:09:07.648Z,-2.00
2019-01-24T23:11:35.920Z,-2.00
2019-01-24T23:14:06.201Z,-2.00
2019-01-24T23:16:34.330Z,-1.90
2019-01-24T23:19:02.585Z,-1.90
2019-01-24T23:21:30.877Z,-2.00
2019-01-24T23:23:59.330Z,-2.10
2019-01-24T23:26:37.211Z,-2.30
2019-01-24T23:29:02.678Z,-2.30
2019-01-24T23:31:32.618Z,-2.20
2019-01-24T23:34:00.916Z,-2.10
2019-01-24T23:36:29.272Z,-2.00
2019-01-24T23:38:57.664Z,-2.10
2019-01-24T23:41:26.030Z,-2.10
2019-01-24T23:43:54.287Z,-2.30
2019-01-24T23:46:22.635Z,-2.10
2019-01-24T23:48:50.942Z,-2.00
2019-01-24T23:51:19.302Z,-2.00
2019-01-24T23:53:48.404Z,-2.00
2019-01-24T23:56:16.768Z,-2.10
2019-01-24T23:58:45.299Z,-2.20
